Gold Coast Airport
YBCG : rendu visible

Aérodrome :











RETROUVEZ-NOUS SUR...

 
LOGIN :

S'inscrire | Disclaimer

   EN    FR    IT 

 









Légende :    VFR   VFR Marginal   IFR   IFR Intensif   IFR Très Intensif
Visi : 
Plafond : 
>= 8 km
>= 3000ft
5 à 8 km
1000 à 3000 ft
1500m à 5 km
500 à 1000 ft
800 à 1500m
200 à 500 ft
< 800m
< 200 ft
Symboles :   Orages  Brouillard  Fortes neiges  Fortes précipitations  Vent > 20 kt






- Altitude de l'aérodrome : 21 ft
- Code IATA : OOL


YBCG - Gold Coast

DERNIER METAR :
  • 240300Z AUTO 34006KT 9999 // SCT027 BKN032 BKN040 23/20 Q1011

METARs EXPIRÉS :
  • 240230Z AUTO 34009KT 9999 -SHRA SCT022 SCT029 OVC070 23/21 Q1011
  • 240200Z AUTO 36011KT 9999 -SHRA BKN025 BKN057 OVC067 23/20 Q1011
  • 240130Z AUTO 36013KT 9999 -RA SCT026 SCT031 SCT038 23/21 Q1011
  • 240100Z AUTO 36014KT 9999 // SCT045 BKN054 BKN063 24/20 Q1012
  • 240030Z AUTO 36013KT 9999 // SCT039 BKN051 24/19 Q1012

TAF AMD TAF YBCG
Valide du 24 à 01h jusqu'au 25 à 00h UTC


240153Z 2401/2500 01018KT 9999 -SHRA SCT030
FM241000 35012KT 9999 -SHRA SCT018 BKN035 INTER 2402/2403 3000 SHRA BKN015 INTER 2405/2416 3000 SHRA BKN015
PROB30
TEMPO 2405/2412 VRB25G40KT 1000 TSRA BKN010 SCT030CB
FIR YBBB / Océanie



MET'MAP, la Météo Aéronautique d'un coup d'oeil ! - Copyright ORBIFLY Décembre 2007 - Disclaimer

ORBIFLY MET'MAP TEAM :

Programmation & Développement : Alexandra Zaïnal
Sur une idée originale de : Baudouin d'Aumeries
Assistance à la programmation : Marc-Olivier Méhu
Soutien technique & logistique : Manuel Goepfert

Contact : metmap@orbifly.com




SOURCES & CREDITS :

   NOAA       Earth
Advisory